Terminal Aerodrome Forecast
Issued by NWS

Home | Current Version | Previous Version | Text Only | Print | Product List | Glossary On
Versions: 1 2 3 4 5 6 7 8 9 10 11 12 13 14 15 16 17 18 19 20 21 22 23 24 25 26 27
000
FTUS41 KOKX 061438 AAA
TAFTEB
TAF AMD
KTEB 061438Z 0615/0712 04007KT P6SM -RA FEW040 OVC070
     FM061700 07009KT P6SM BKN080
     FM062100 12008KT P6SM BKN080
     FM070100 VRB04KT P6SM SCT080=

USA.gov is the U.S. government's official web portal to all federal, state and local government web resources and services.